createdAt,value
2022-08-17T00:00:43.957Z,100464.06
2022-08-17T00:01:53.358Z,100469.13
2022-08-17T00:03:00.330Z,100463.69
2022-08-17T00:04:10.663Z,100469.97
2022-08-17T00:05:15.226Z,100468.28
2022-08-17T00:06:20.968Z,100461.19
2022-08-17T00:07:22.851Z,100460.59
2022-08-17T00:08:30.546Z,100463.31
2022-08-17T00:09:32.177Z,100462.72
2022-08-17T00:10:35.483Z,100456.66
2022-08-17T00:11:41.304Z,100467.53
2022-08-17T00:12:44.894Z,100466.09
2022-08-17T00:13:52.213Z,100468.81
2022-08-17T00:14:58.942Z,100460.88
2022-08-17T00:16:07.010Z,100457.56
2022-08-17T00:17:09.752Z,100456.97
2022-08-17T00:18:58.178Z,100461.78
2022-08-17T00:19:35.946Z,100454.72
2022-08-17T00:20:37.575Z,100456.81
2022-08-17T00:22:29.970Z,100455.19
2022-08-17T00:23:06.647Z,100453.72
2022-08-17T00:24:09.467Z,100453.97
2022-08-17T00:25:15.623Z,100449.81
2022-08-17T00:26:44.161Z,100454.41
2022-08-17T00:27:42.402Z,100454.88
2022-08-17T00:28:44.068Z,100457.78
2022-08-17T00:29:48.105Z,100458.03
2022-08-17T00:30:53.584Z,100459.06
2022-08-17T00:31:56.307Z,100463.91
2022-08-17T00:33:15.411Z,100458.69
2022-08-17T00:34:19.644Z,100461.63
2022-08-17T00:35:23.605Z,100461.88
2022-08-17T00:36:29.527Z,100456.66
2022-08-17T00:37:31.379Z,100451.66
2022-08-17T00:38:34.700Z,100453.34
2022-08-17T00:39:36.360Z,100450.03
2022-08-17T00:40:44.530Z,100457.34
2022-08-17T00:41:47.624Z,100455.91
2022-08-17T00:42:49.734Z,100452.13
2022-08-17T00:43:55.120Z,100451.72
2022-08-17T00:44:58.499Z,100448.19
2022-08-17T00:46:03.824Z,100455.72
2022-08-17T00:47:05.874Z,100449.72
2022-08-17T00:48:23.749Z,100452.41
2022-08-17T00:49:31.241Z,100452.63
2022-08-17T00:50:34.102Z,100447.63
2022-08-17T00:51:42.815Z,100456.81
2022-08-17T00:52:51.175Z,100449.72
2022-08-17T00:53:59.243Z,100448.06
2022-08-17T00:55:01.638Z,100453.69
2022-08-17T00:56:08.721Z,100443.09
2022-08-17T00:57:17.445Z,100440.56
2022-08-17T00:58:35.738Z,100438.94
2022-08-17T00:59:47.022Z,100437.28
2022-08-17T01:01:12.323Z,100441.03
2022-08-17T01:02:23.590Z,100437.72
2022-08-17T01:03:27.447Z,100433.34
2022-08-17T01:04:31.383Z,100437.94
2022-08-17T01:05:38.253Z,100439.84
2022-08-17T01:06:46.138Z,100437.34
2022-08-17T01:07:50.684Z,100431.50
2022-08-17T01:08:57.313Z,100436.94
2022-08-17T01:10:04.741Z,100435.28
2022-08-17T01:11:07.718Z,100434.47
2022-08-17T01:12:11.983Z,100437.38
2022-08-17T01:13:14.110Z,100435.72
2022-08-17T01:14:16.696Z,100434.09
2022-08-17T01:15:18.353Z,100435.97
2022-08-17T01:16:25.384Z,100433.25
2022-08-17T01:17:28.925Z,100434.28
2022-08-17T01:18:33.084Z,100424.47
2022-08-17T01:19:39.137Z,100432.84
2022-08-17T01:20:48.886Z,100434.53
2022-08-17T01:21:55.030Z,100436.63
2022-08-17T01:22:59.130Z,100434.94
2022-08-17T01:24:01.742Z,100429.50
2022-08-17T01:25:08.880Z,100433.06
2022-08-17T01:26:10.516Z,100437.66
2022-08-17T01:27:15.297Z,100438.72
2022-08-17T01:28:33.369Z,100445.19
2022-08-17T01:29:46.824Z,100440.81
2022-08-17T01:30:58.743Z,100443.75
2022-08-17T01:32:05.895Z,100441.25
2022-08-17T01:33:11.327Z,100446.69
2022-08-17T01:34:16.343Z,100445.84
2022-08-17T01:35:17.933Z,100438.78
2022-08-17T01:36:20.538Z,100440.66
2022-08-17T01:37:29.973Z,100440.88
2022-08-17T01:38:34.054Z,100433.81
2022-08-17T01:39:38.237Z,100439.44
2022-08-17T01:40:47.385Z,100436.97
2022-08-17T01:42:06.068Z,100442.59
2022-08-17T01:43:11.871Z,100441.75
2022-08-17T01:44:15.179Z,100434.91
2022-08-17T01:45:22.937Z,100431.34
2022-08-17T01:46:27.637Z,100437.84
2022-08-17T01:47:30.552Z,100433.47
2022-08-17T01:48:36.621Z,100433.66
2022-08-17T01:49:39.289Z,100433.91
2022-08-17T01:50:44.023Z,100433.06
2022-08-17T01:51:46.781Z,100423.50
2022-08-17T01:52:54.026Z,100430.78
2022-08-17T01:54:01.362Z,100434.78
2022-08-17T01:55:04.633Z,100430.41
2022-08-17T01:56:10.119Z,100432.28
2022-08-17T01:57:11.957Z,100434.38
2022-08-17T01:58:14.947Z,100427.31
2022-08-17T01:59:18.268Z,100436.44
2022-08-17T02:00:21.166Z,100434.81
2022-08-17T02:01:26.613Z,100433.13
2022-08-17T02:02:31.074Z,100430.63
2022-08-17T02:03:34.782Z,100429.81
2022-08-17T02:04:37.450Z,100428.16
2022-08-17T02:05:39.755Z,100431.91
2022-08-17T02:06:52.360Z,100432.94
2022-08-17T02:07:59.866Z,100430.22
2022-08-17T02:09:05.734Z,100432.72
2022-08-17T02:10:16.728Z,100431.28
2022-08-17T02:11:23.017Z,100429.63
2022-08-17T02:12:39.136Z,100434.84
2022-08-17T02:13:42.740Z,100435.06
2022-08-17T02:14:44.513Z,100436.72
2022-08-17T02:15:47.503Z,100424.22
2022-08-17T02:16:49.493Z,100436.94
2022-08-17T02:17:54.925Z,100431.50
2022-08-17T02:18:56.713Z,100431.50
2022-08-17T02:19:59.424Z,100429.03
2022-08-17T02:21:01.153Z,100424.44
2022-08-17T02:22:03.993Z,100423.59
2022-08-17T02:23:08.807Z,100426.31
2022-08-17T02:24:16.409Z,100421.94
2022-08-17T02:25:20.229Z,100421.09
2022-08-17T02:26:25.564Z,100419.22
2022-08-17T02:27:28.459Z,100431.09
2022-08-17T02:28:31.093Z,100419.22
2022-08-17T02:29:32.882Z,100431.94
2022-08-17T02:30:59.308Z,100425.69
2022-08-17T02:31:58.436Z,100431.94
2022-08-17T02:33:04.345Z,100429.47
2022-08-17T02:34:08.186Z,100429.47
2022-08-17T02:35:11.079Z,100431.34
2022-08-17T02:36:13.011Z,100429.47
2022-08-17T02:37:17.499Z,100423.41
2022-08-17T02:38:19.197Z,100428.63
2022-08-17T02:39:23.197Z,100432.19
2022-08-17T02:40:35.910Z,100425.09
2022-08-17T02:41:40.116Z,100422.97
2022-08-17T02:42:43.471Z,100429.47
2022-08-17T02:43:46.234Z,100426.75
2022-08-17T02:44:48.720Z,100431.09
2022-08-17T02:45:51.543Z,100420.25
2022-08-17T02:46:54.054Z,100425.69
2022-08-17T02:47:56.781Z,100424.03
2022-08-17T02:48:58.691Z,100424.03
2022-08-17T02:50:01.319Z,100418.63
2022-08-17T02:51:02.973Z,100422.97
2022-08-17T02:52:09.039Z,100424.84
2022-08-17T02:53:10.660Z,100424.03
2022-08-17T02:54:40.318Z,100420.50
2022-08-17T02:55:40.114Z,100430.28
2022-08-17T02:56:42.763Z,100424.03
2022-08-17T02:57:44.878Z,100431.34
2022-08-17T02:58:48.027Z,100424.03
2022-08-17T02:59:49.659Z,100421.34
2022-08-17T03:00:52.209Z,100429.47
2022-08-17T03:01:53.917Z,100425.69
2022-08-17T03:03:02.205Z,100430.06
2022-08-17T03:04:04.301Z,100422.78
2022-08-17T03:05:07.952Z,100420.91
2022-08-17T03:06:10.019Z,100428.19
2022-08-17T03:07:12.769Z,100421.72
2022-08-17T03:08:15.439Z,100419.81
2022-08-17T03:09:18.050Z,100424.66
2022-08-17T03:10:21.467Z,100425.25
2022-08-17T03:11:25.747Z,100426.91
2022-08-17T03:12:32.469Z,100429.63
2022-08-17T03:13:35.137Z,100428.78
2022-08-17T03:14:41.246Z,100424.22
2022-08-17T03:15:46.272Z,100414.41
2022-08-17T03:16:47.908Z,100413.38
2022-08-17T03:17:51.985Z,100411.69
2022-08-17T03:18:54.952Z,100417.94
2022-08-17T03:19:58.750Z,100417.13
2022-08-17T03:21:01.540Z,100416.31
2022-08-17T03:22:35.614Z,100419.81
2022-08-17T03:23:29.433Z,100424.44
2022-08-17T03:24:32.801Z,100421.72
2022-08-17T03:25:37.598Z,100418.19
2022-08-17T03:26:42.828Z,100410.25
2022-08-17T03:27:44.674Z,100420.06
2022-08-17T03:28:51.471Z,100409.22
2022-08-17T03:29:53.317Z,100408.38
2022-08-17T03:30:55.925Z,100410.06
2022-08-17T03:31:57.699Z,100410.06
2022-08-17T03:33:02.531Z,100416.31
2022-08-17T03:34:04.313Z,100409.22
2022-08-17T03:35:07.892Z,100409.41
2022-08-17T03:36:11.172Z,100418.38
2022-08-17T03:37:12.865Z,100416.50
2022-08-17T03:38:17.058Z,100414.84
2022-08-17T03:39:19.176Z,100411.28
2022-08-17T03:40:55.058Z,100415.91
2022-08-17T03:41:44.763Z,100412.56
2022-08-17T03:42:47.781Z,100415.28
2022-08-17T03:43:49.357Z,100415.53
2022-08-17T03:44:53.104Z,100411.72
2022-08-17T03:46:27.962Z,100405.72
2022-08-17T03:47:54.545Z,100410.31
2022-08-17T03:49:14.873Z,100407.59
2022-08-17T03:50:36.841Z,100412.41
2022-08-17T03:51:56.895Z,100412.41
2022-08-17T03:53:17.141Z,100414.50
2022-08-17T03:54:37.417Z,100410.13
2022-08-17T03:55:57.797Z,100412.00
2022-08-17T03:57:06.398Z,100412.22
2022-08-17T03:58:08.090Z,100413.28
2022-08-17T03:59:20.975Z,100413.28
2022-08-17T04:00:25.082Z,100409.75
2022-08-17T04:01:26.929Z,100419.50
2022-08-17T04:02:31.918Z,100416.00
2022-08-17T04:03:33.890Z,100421.19
2022-08-17T04:04:36.777Z,100424.13
2022-08-17T04:05:38.927Z,100424.94
2022-08-17T04:06:46.369Z,100417.03
2022-08-17T04:07:49.436Z,100425.75
2022-08-17T04:08:54.138Z,100428.47
2022-08-17T04:10:00.309Z,100431.19
2022-08-17T04:11:03.866Z,100431.19
2022-08-17T04:12:08.925Z,100424.94
2022-08-17T04:13:12.245Z,100426.59
2022-08-17T04:14:14.624Z,100421.19
2022-08-17T04:15:19.394Z,100425.56
2022-08-17T04:16:24.060Z,100421.19
2022-08-17T04:17:30.422Z,100424.53
2022-08-17T04:18:33.661Z,100425.34
2022-08-17T04:19:37.377Z,100420.75
2022-08-17T04:20:39.093Z,100420.75
2022-08-17T04:21:45.499Z,100425.13
2022-08-17T04:22:58.218Z,100429.50
2022-08-17T04:24:00.950Z,100427.84
2022-08-17T04:25:06.995Z,100431.38
2022-08-17T04:26:09.616Z,100431.38
2022-08-17T04:27:32.797Z,100433.25
2022-08-17T04:28:35.684Z,100439.72
2022-08-17T04:29:55.113Z,100442.44
2022-08-17T04:30:58.535Z,100454.09
2022-08-17T04:32:02.812Z,100447.66
2022-08-17T04:33:08.560Z,100450.34
2022-08-17T04:34:10.239Z,100455.78
2022-08-17T04:35:12.878Z,100453.91
2022-08-17T04:36:15.669Z,100446.56
2022-08-17T04:37:18.227Z,100457.41
2022-08-17T04:38:22.486Z,100453.66
2022-08-17T04:39:26.193Z,100448.25
2022-08-17T04:40:47.168Z,100449.91
2022-08-17T04:42:07.159Z,100446.97
2022-08-17T04:43:13.380Z,100446.16
2022-08-17T04:44:36.933Z,100446.16
2022-08-17T04:45:55.596Z,100449.69
2022-08-17T04:46:59.563Z,100447.81
2022-08-17T04:48:01.204Z,100448.44
2022-08-17T04:49:07.032Z,100450.31
2022-08-17T04:50:09.668Z,100456.56
2022-08-17T04:51:15.143Z,100450.91
2022-08-17T04:52:29.720Z,100453.44
2022-08-17T04:53:41.013Z,100455.91
2022-08-17T04:54:43.727Z,100448.59
2022-08-17T04:55:46.129Z,100452.16
2022-08-17T04:56:48.841Z,100448.16
2022-08-17T04:57:50.543Z,100445.44
2022-08-17T04:58:57.287Z,100453.97
2022-08-17T04:59:59.052Z,100449.59
2022-08-17T05:01:01.789Z,100454.81
2022-08-17T05:02:03.542Z,100451.88
2022-08-17T05:03:06.991Z,100450.22
2022-08-17T05:04:21.061Z,100451.06
2022-08-17T05:05:37.198Z,100453.38
2022-08-17T05:06:39.955Z,100459.63
2022-08-17T05:07:41.987Z,100453.97
2022-08-17T05:08:44.573Z,100453.97
2022-08-17T05:09:46.190Z,100449.38
2022-08-17T05:10:50.136Z,100451.84
2022-08-17T05:11:51.806Z,100445.41
2022-08-17T05:12:59.151Z,100449.78
2022-08-17T05:14:03.132Z,100444.13
2022-08-17T05:15:05.740Z,100440.59
2022-08-17T05:16:09.036Z,100443.91
2022-08-17T05:17:11.231Z,100451.00
2022-08-17T05:18:14.654Z,100447.22
2022-08-17T05:19:16.579Z,100452.66
2022-08-17T05:20:19.350Z,100448.91
2022-08-17T05:21:23.900Z,100450.56
2022-08-17T05:22:26.334Z,100450.56
2022-08-17T05:23:42.429Z,100453.03
2022-08-17T05:24:53.933Z,100456.59
2022-08-17T05:25:58.556Z,100459.31
2022-08-17T05:27:06.253Z,100453.88
2022-08-17T05:28:10.729Z,100447.84
2022-08-17T05:29:16.303Z,100454.91
2022-08-17T05:30:18.164Z,100452.22
2022-08-17T05:31:20.949Z,100454.72
2022-08-17T05:32:39.407Z,100454.72
2022-08-17T05:33:46.893Z,100450.97
2022-08-17T05:34:48.594Z,100453.44
2022-08-17T05:35:53.492Z,100449.69
2022-08-17T05:36:57.510Z,100447.56
2022-08-17T05:38:00.806Z,100455.72
2022-08-17T05:39:03.694Z,100450.69
2022-08-17T05:40:07.406Z,100445.84
2022-08-17T05:41:10.568Z,100446.69
2022-08-17T05:42:12.845Z,100449.19
2022-08-17T05:43:19.864Z,100446.22
2022-08-17T05:44:23.499Z,100456.03
2022-08-17T05:45:54.264Z,100449.56
2022-08-17T05:46:53.877Z,100451.22
2022-08-17T05:47:55.835Z,100450.19
2022-08-17T05:49:02.469Z,100462.69
2022-08-17T05:50:09.761Z,100477.94
2022-08-17T05:51:42.619Z,100501.28
2022-08-17T05:52:50.243Z,100507.53
2022-08-17T05:54:01.963Z,100514.25
2022-08-17T05:55:17.935Z,100496.75
2022-08-17T05:56:36.470Z,100485.50
2022-08-17T05:57:57.177Z,100499.75
2022-08-17T05:59:13.903Z,100505.56
2022-08-17T06:00:20.692Z,100497.66
2022-08-17T06:01:34.997Z,100483.50
2022-08-17T06:02:48.038Z,100466.41
2022-08-17T06:04:01.531Z,100490.81
2022-08-17T06:05:17.903Z,100497.28
2022-08-17T06:06:31.474Z,100506.69
2022-08-17T06:07:42.985Z,100507.97
2022-08-17T06:08:51.969Z,100497.31
2022-08-17T06:10:01.812Z,100484.59
2022-08-17T06:11:15.996Z,100486.25
2022-08-17T06:12:37.196Z,100493.97
2022-08-17T06:13:53.273Z,100499.78
2022-08-17T06:15:10.750Z,100494.97
2022-08-17T06:16:25.815Z,100498.06
2022-08-17T06:17:37.611Z,100497.63
2022-08-17T06:18:45.076Z,100498.22
2022-08-17T06:19:52.028Z,100500.50
2022-08-17T06:20:58.481Z,100499.84
2022-08-17T06:22:02.620Z,100495.84
2022-08-17T06:23:12.243Z,100498.97
2022-08-17T06:24:28.290Z,100496.63
2022-08-17T06:25:35.651Z,100497.25
2022-08-17T06:26:43.278Z,100496.81
2022-08-17T06:27:53.548Z,100499.91
2022-08-17T06:29:00.261Z,100498.66
2022-08-17T06:30:09.822Z,100504.84
2022-08-17T06:31:27.372Z,100502.50
2022-08-17T06:32:31.976Z,100506.47
2022-08-17T06:33:36.517Z,100499.56
2022-08-17T06:34:40.524Z,100503.69
2022-08-17T06:35:52.271Z,100502.19
2022-08-17T06:37:07.694Z,100499.28
2022-08-17T06:38:37.065Z,100499.03
2022-08-17T06:39:48.704Z,100503.44
2022-08-17T06:41:04.432Z,100495.88
2022-08-17T06:43:04.089Z,100505.44
2022-08-17T06:43:51.761Z,100505.25
2022-08-17T06:45:03.400Z,100504.19
2022-08-17T06:46:11.432Z,100506.91
2022-08-17T06:47:28.096Z,100506.91
2022-08-17T06:48:38.673Z,100507.31
2022-08-17T06:49:49.506Z,100517.09
2022-08-17T06:50:59.907Z,100512.03
2022-08-17T06:52:12.230Z,100512.66
2022-08-17T06:53:41.791Z,100506.16
2022-08-17T06:54:53.023Z,100518.69
2022-08-17T06:56:01.603Z,100525.78
2022-08-17T06:57:14.466Z,100531.81
2022-08-17T06:58:22.234Z,100527.44
2022-08-17T06:59:54.785Z,100524.50
2022-08-17T07:00:59.070Z,100523.66
2022-08-17T07:02:05.497Z,100528.88
2022-08-17T07:03:20.832Z,100524.25
2022-08-17T07:04:26.540Z,100535.75
2022-08-17T07:05:43.724Z,100531.97
2022-08-17T07:06:53.304Z,100531.75
2022-08-17T07:08:01.619Z,100536.94
2022-08-17T07:09:08.299Z,100539.06
2022-08-17T07:10:10.814Z,100544.06
2022-08-17T07:11:17.756Z,100539.25
2022-08-17T07:12:24.492Z,100539.00
2022-08-17T07:13:39.007Z,100543.97
2022-08-17T07:14:51.393Z,100548.13
2022-08-17T07:15:59.791Z,100541.88
2022-08-17T07:17:10.383Z,100541.06
2022-08-17T07:18:13.420Z,100535.38
2022-08-17T07:19:17.861Z,100541.44
2022-08-17T07:20:22.466Z,100549.34
2022-08-17T07:21:40.812Z,100545.59
2022-08-17T07:22:57.623Z,100546.03
2022-08-17T07:24:26.358Z,100544.59
2022-08-17T07:25:34.397Z,100550.25
2022-08-17T07:26:38.791Z,100550.84
2022-08-17T07:27:47.672Z,100541.06
2022-08-17T07:28:49.669Z,100547.31
2022-08-17T07:29:56.506Z,100555.22
2022-08-17T07:30:58.208Z,100537.88
2022-08-17T07:32:00.831Z,100542.47
2022-08-17T07:33:13.207Z,100553.09
2022-08-17T07:34:16.631Z,100546.88
2022-08-17T07:35:23.027Z,100556.44
2022-08-17T07:36:29.945Z,100553.72
2022-08-17T07:37:33.362Z,100551.03
2022-08-17T07:38:36.386Z,100548.91
2022-08-17T07:40:15.235Z,100550.59
2022-08-17T07:41:03.757Z,100550.34
2022-08-17T07:42:05.756Z,100549.56
2022-08-17T07:43:21.959Z,100543.03
2022-08-17T07:44:26.149Z,100552.84
2022-08-17T07:45:46.773Z,100551.81
2022-08-17T07:47:11.642Z,100541.78
2022-08-17T07:48:21.479Z,100537.16
2022-08-17T07:49:36.098Z,100535.06
2022-08-17T07:50:37.801Z,100539.19
2022-08-17T07:51:55.285Z,100541.91
2022-08-17T07:53:16.532Z,100539.41
2022-08-17T07:54:23.351Z,100544.25
2022-08-17T07:55:28.014Z,100550.53
2022-08-17T07:56:41.246Z,100552.41
2022-08-17T07:57:43.173Z,100566.00
2022-08-17T07:58:48.249Z,100563.88
2022-08-17T08:00:32.480Z,100561.31
2022-08-17T08:01:39.625Z,100569.03
2022-08-17T08:02:47.250Z,100562.53
2022-08-17T08:03:49.495Z,100567.53
2022-08-17T08:05:06.579Z,100557.88
2022-08-17T08:06:20.804Z,100560.59
2022-08-17T08:07:26.343Z,100566.22
2022-08-17T08:08:33.428Z,100565.00
2022-08-17T08:09:42.220Z,100569.63
2022-08-17T08:10:57.544Z,100567.13
2022-08-17T08:12:00.221Z,100571.94
2022-08-17T08:13:12.200Z,100566.16
2022-08-17T08:14:28.604Z,100571.81
2022-08-17T08:15:36.483Z,100569.94
2022-08-17T08:16:38.215Z,100574.31
2022-08-17T08:17:53.965Z,100567.34
2022-08-17T08:18:58.217Z,100572.97
2022-08-17T08:20:51.166Z,100574.97
2022-08-17T08:21:43.622Z,100578.06
2022-08-17T08:22:58.827Z,100582.00
2022-08-17T08:24:17.232Z,100576.13
2022-08-17T08:25:33.446Z,100581.09
2022-08-17T08:26:43.583Z,100579.59
2022-08-17T08:27:56.035Z,100581.41
2022-08-17T08:29:09.470Z,100582.16
2022-08-17T08:30:15.575Z,100585.84
2022-08-17T08:31:27.153Z,100594.63
2022-08-17T08:32:45.214Z,100577.47
2022-08-17T08:33:57.661Z,100589.97
2022-08-17T08:35:06.554Z,100589.19
2022-08-17T08:37:12.910Z,100588.34
2022-08-17T08:37:57.206Z,100587.50
2022-08-17T08:39:06.499Z,100590.22
2022-08-17T08:40:30.170Z,100597.13
2022-08-17T08:41:42.100Z,100596.06
2022-08-17T08:42:50.453Z,100597.50
2022-08-17T08:44:12.781Z,100588.28
2022-08-17T08:45:20.167Z,100597.03
2022-08-17T08:46:36.361Z,100589.50
2022-08-17T08:48:05.907Z,100587.59
2022-08-17T08:50:01.857Z,100584.84
2022-08-17T08:51:05.756Z,100587.00
2022-08-17T08:52:23.560Z,100580.72
2022-08-17T08:53:34.163Z,100585.31
2022-08-17T08:54:46.225Z,100580.34
2022-08-17T08:55:55.104Z,100580.81
2022-08-17T08:57:29.143Z,100588.34
2022-08-17T08:58:41.227Z,100584.03
2022-08-17T08:59:58.277Z,100580.09
2022-08-17T09:01:04.011Z,100583.53
2022-08-17T09:02:20.467Z,100583.97
2022-08-17T09:03:52.770Z,100583.81
2022-08-17T09:05:15.503Z,100579.47
2022-08-17T09:06:41.541Z,100578.63
2022-08-17T09:07:51.374Z,100583.44
2022-08-17T09:09:14.017Z,100585.31
2022-08-17T09:10:25.385Z,100577.63
2022-08-17T09:11:35.719Z,100577.63
2022-08-17T09:13:10.156Z,100574.75
2022-08-17T09:14:21.724Z,100577.94
2022-08-17T09:15:27.981Z,100573.78
2022-08-17T09:16:33.179Z,100571.28
2022-08-17T09:17:40.753Z,100577.19
2022-08-17T09:18:59.866Z,100576.59
2022-08-17T09:20:28.018Z,100574.31
2022-08-17T09:21:47.977Z,100574.75
2022-08-17T09:22:55.954Z,100579.59
2022-08-17T09:24:05.948Z,100579.00
2022-08-17T09:25:12.099Z,100577.31
2022-08-17T09:26:26.246Z,100571.88
2022-08-17T09:27:49.290Z,100571.88
2022-08-17T09:28:52.853Z,100571.88
2022-08-17T09:30:00.435Z,100574.59
2022-08-17T09:31:07.871Z,100574.00
2022-08-17T09:32:18.131Z,100578.59
2022-08-17T09:33:23.059Z,100580.25
2022-08-17T09:34:34.328Z,100580.88
2022-08-17T09:35:43.651Z,100585.03
2022-08-17T09:36:56.601Z,100582.91
2022-08-17T09:38:14.286Z,100579.75
2022-08-17T09:39:24.367Z,100587.91
2022-08-17T09:40:31.915Z,100593.34
2022-08-17T09:41:48.945Z,100589.56
2022-08-17T09:42:57.200Z,100592.91
2022-08-17T09:44:03.007Z,100608.50
2022-08-17T09:45:16.574Z,100596.34
2022-08-17T09:46:24.749Z,100593.41
2022-08-17T09:47:32.282Z,100602.16
2022-08-17T09:48:39.852Z,100595.47
2022-08-17T09:49:49.530Z,100593.34
2022-08-17T09:51:04.818Z,100593.34
2022-08-17T09:52:18.181Z,100590.63
2022-08-17T09:53:20.889Z,100595.47
2022-08-17T09:54:44.688Z,100590.47
2022-08-17T09:56:01.864Z,100595.28
2022-08-17T09:57:29.026Z,100596.97
2022-08-17T09:58:47.515Z,100599.69
2022-08-17T10:00:08.955Z,100595.09
2022-08-17T10:01:24.936Z,100604.50
2022-08-17T10:02:54.254Z,100598.47
2022-08-17T10:04:30.533Z,100604.34
2022-08-17T10:05:38.406Z,100604.56
2022-08-17T10:06:50.292Z,100601.50
2022-08-17T10:08:01.041Z,100606.31
2022-08-17T10:09:11.092Z,100598.59
2022-08-17T10:10:19.540Z,100607.00
2022-08-17T10:11:48.245Z,100612.44
2022-08-17T10:13:00.556Z,100608.88
2022-08-17T10:14:36.848Z,100598.00
2022-08-17T10:15:42.788Z,100615.16
2022-08-17T10:16:55.832Z,100618.69
2022-08-17T10:18:18.361Z,100612.44
2022-08-17T10:19:31.996Z,100618.69
2022-08-17T10:20:39.442Z,100624.13
2022-08-17T10:22:14.971Z,100625.78
2022-08-17T10:23:48.477Z,100623.66
2022-08-17T10:25:22.565Z,100630.19
2022-08-17T10:26:28.485Z,100634.19
2022-08-17T10:27:57.543Z,100633.78
2022-08-17T10:29:02.884Z,100633.97
2022-08-17T10:30:08.006Z,100638.56
2022-08-17T10:31:34.839Z,100631.50
2022-08-17T10:32:41.418Z,100632.53
2022-08-17T10:33:57.425Z,100630.88
2022-08-17T10:35:36.550Z,100633.81
2022-08-17T10:36:49.019Z,100628.00
2022-08-17T10:38:29.143Z,100628.22
2022-08-17T10:39:57.355Z,100631.38
2022-08-17T10:41:07.909Z,100628.91
2022-08-17T10:42:30.162Z,100635.97
2022-08-17T10:44:38.121Z,100634.94
2022-08-17T10:45:26.316Z,100637.66
2022-08-17T10:46:40.460Z,100641.41
2022-08-17T10:48:04.707Z,100631.63
2022-08-17T10:49:26.470Z,100634.97
2022-08-17T10:50:58.483Z,100634.59
2022-08-17T10:52:03.491Z,100630.66
2022-08-17T10:53:05.094Z,100625.66
2022-08-17T10:54:28.559Z,100623.41
2022-08-17T10:55:32.458Z,100619.69
2022-08-17T10:56:43.628Z,100607.84
2022-08-17T10:57:47.579Z,100606.59
2022-08-17T10:58:53.893Z,100604.34
2022-08-17T10:59:57.794Z,100601.44
2022-08-17T11:00:59.911Z,100598.72
2022-08-17T11:02:16.127Z,100597.06
2022-08-17T11:03:22.059Z,100587.84
2022-08-17T11:04:39.088Z,100584.94
2022-08-17T11:05:53.961Z,100585.78
2022-08-17T11:07:06.301Z,100575.34
2022-08-17T11:08:36.015Z,100566.59
2022-08-17T11:09:56.586Z,100569.16
2022-08-17T11:11:35.923Z,100561.22
2022-08-17T11:12:50.374Z,100564.44
2022-08-17T11:14:08.820Z,100572.63
2022-08-17T11:15:26.773Z,100575.78
2022-08-17T11:16:47.955Z,100580.59
2022-08-17T11:18:10.897Z,100580.81
2022-08-17T11:19:49.580Z,100583.31
2022-08-17T11:21:44.414Z,100584.50
2022-08-17T11:23:10.566Z,100579.72
2022-08-17T11:24:17.566Z,100584.47
2022-08-17T11:25:26.032Z,100584.88
2022-08-17T11:26:32.887Z,100593.78
2022-08-17T11:27:35.991Z,100587.31
2022-08-17T11:28:48.849Z,100591.22
2022-08-17T11:30:02.157Z,100591.53
2022-08-17T11:31:23.335Z,100597.28
2022-08-17T11:32:47.525Z,100597.16
2022-08-17T11:34:07.633Z,100601.03
2022-08-17T11:35:32.300Z,100601.97
2022-08-17T11:37:02.624Z,100603.75
2022-08-17T11:38:25.251Z,100610.25
2022-08-17T11:39:55.270Z,100614.50
2022-08-17T11:41:13.171Z,100614.78
2022-08-17T11:42:29.993Z,100624.75
2022-08-17T11:44:10.394Z,100620.09
2022-08-17T11:45:33.824Z,100623.56
2022-08-17T11:47:09.171Z,100624.53
2022-08-17T11:48:37.998Z,100629.06
2022-08-17T11:50:17.148Z,100622.31
2022-08-17T11:51:34.517Z,100619.75
2022-08-17T11:52:39.351Z,100626.63
2022-08-17T11:54:31.192Z,100624.34
2022-08-17T11:56:05.155Z,100628.97
2022-08-17T11:58:00.119Z,100635.84
2022-08-17T11:59:02.097Z,100638.94
2022-08-17T12:00:10.244Z,100636.38
2022-08-17T12:01:56.608Z,100634.22
2022-08-17T12:03:22.330Z,100636.03
2022-08-17T12:04:30.440Z,100638.28
2022-08-17T12:05:34.108Z,100637.84
2022-08-17T12:06:49.519Z,100635.72
2022-08-17T12:08:01.495Z,100637.38
2022-08-17T12:09:11.705Z,100638.44
2022-08-17T12:10:16.105Z,100647.19
2022-08-17T12:12:11.350Z,100640.69
2022-08-17T12:12:53.319Z,100644.00
2022-08-17T12:13:58.106Z,100648.22
2022-08-17T12:15:11.342Z,100645.50
2022-08-17T12:16:17.554Z,100635.41
2022-08-17T12:17:39.485Z,100638.13
2022-08-17T12:18:51.831Z,100646.97
2022-08-17T12:19:54.762Z,100648.28
2022-08-17T12:21:15.417Z,100646.59
2022-08-17T12:22:25.368Z,100649.19
2022-08-17T12:23:36.819Z,100640.41
2022-08-17T12:24:51.547Z,100654.88
2022-08-17T12:25:58.122Z,100646.69
2022-08-17T12:27:06.728Z,100649.19
2022-08-17T12:28:23.886Z,100650.00
2022-08-17T12:29:35.841Z,100653.72
2022-08-17T12:30:42.204Z,100649.25
2022-08-17T12:31:47.230Z,100646.91
2022-08-17T12:32:49.954Z,100655.44
2022-08-17T12:33:52.903Z,100650.97
2022-08-17T12:34:55.819Z,100644.56
2022-08-17T12:36:00.215Z,100652.91
2022-08-17T12:37:15.091Z,100650.75
2022-08-17T12:38:26.905Z,100662.03
2022-08-17T12:39:35.819Z,100654.06
2022-08-17T12:40:37.833Z,100656.22
2022-08-17T12:41:43.214Z,100649.09
2022-08-17T12:42:56.768Z,100657.88
2022-08-17T12:44:02.860Z,100655.53
2022-08-17T12:45:07.415Z,100655.03
2022-08-17T12:46:17.526Z,100651.50
2022-08-17T12:47:23.042Z,100651.50
2022-08-17T12:48:26.979Z,100652.91
2022-08-17T12:49:32.782Z,100651.59
2022-08-17T12:50:35.581Z,100656.47
2022-08-17T12:51:38.580Z,100637.88
2022-08-17T12:52:43.322Z,100644.38
2022-08-17T12:53:53.802Z,100645.69
2022-08-17T12:55:00.782Z,100646.72
2022-08-17T12:56:09.453Z,100642.59
2022-08-17T12:57:15.815Z,100639.97
2022-08-17T12:58:21.686Z,100640.53
2022-08-17T12:59:30.164Z,100637.06
2022-08-17T13:00:35.681Z,100636.91
2022-08-17T13:01:41.622Z,100635.47
2022-08-17T13:02:48.120Z,100640.31
2022-08-17T13:03:54.149Z,100643.50
2022-08-17T13:04:59.399Z,100634.97
2022-08-17T13:06:08.396Z,100630.59
2022-08-17T13:07:10.043Z,100636.66
2022-08-17T13:08:15.562Z,100638.44
2022-08-17T13:09:22.488Z,100643.19
2022-08-17T13:10:38.766Z,100646.06
2022-08-17T13:11:48.587Z,100651.44
2022-08-17T13:12:52.472Z,100645.88
2022-08-17T13:13:56.981Z,100653.13
2022-08-17T13:15:00.834Z,100643.63
2022-08-17T13:16:05.936Z,100642.13
2022-08-17T13:17:13.375Z,100645.78
2022-08-17T13:18:41.721Z,100648.28
2022-08-17T13:19:50.468Z,100641.78
2022-08-17T13:20:53.324Z,100641.31
2022-08-17T13:21:59.290Z,100641.44